Time;durP1;ratioP1;P1;durP2;ratioP2;P2;SDS_P1;SDS_P2;PMS_P1;PMS_P2;Temp;Humidity;BMP_temperature;BMP_pressure;BME280_temperature;BME280_humidity;BME280_pressure;Samples;Min_cycle;Max_cycle;Signal;HPM_P1;HPM_P2
2022/08/23 00:01:20;;;;;;;2.08;1.17;;;;;;;28.81;35.39;96217.38;5075981;28;20607;-37
2022/08/23 00:03:47;;;;;;;1.92;1.00;;;;;;;28.92;35.28;96207.94;5093952;28;20027;-41
2022/08/23 00:06:13;;;;;;;1.45;1.20;;;;;;;28.88;35.46;96213.88;5093826;28;20024;-37
2022/08/23 00:08:39;;;;;;;1.30;1.20;;;;;;;28.91;35.55;96218.38;5093736;28;20020;-38
2022/08/23 00:11:05;;;;;;;1.98;1.08;;;;;;;28.84;35.09;96216.28;5093857;28;20027;-37
2022/08/23 00:13:31;;;;;;;1.85;1.15;;;;;;;28.79;35.67;96217.22;5093834;28;20035;-38
2022/08/23 00:15:57;;;;;;;1.35;1.10;;;;;;;28.76;35.79;96217.53;5075564;28;20391;-40
2022/08/23 00:18:23;;;;;;;1.38;1.25;;;;;;;28.80;35.67;96215.91;5093743;28;20038;-41
2022/08/23 00:20:49;;;;;;;1.20;1.10;;;;;;;28.80;35.77;96215.91;5093153;28;20024;-38
2022/08/23 00:23:15;;;;;;;1.35;1.20;;;;;;;28.79;35.90;96219.25;5093666;28;20400;-38
2022/08/23 00:25:41;;;;;;;2.17;1.40;;;;;;;28.80;35.93;96224.28;5093918;28;20069;-38
2022/08/23 00:28:07;;;;;;;1.77;1.20;;;;;;;28.84;35.91;96223.91;5093509;28;20024;-39
2022/08/23 00:30:33;;;;;;;1.30;1.15;;;;;;;28.71;36.43;96224.78;5093411;28;20028;-38
2022/08/23 00:32:58;;;;;;;1.52;1.27;;;;;;;28.85;36.29;96212.19;5093353;28;20119;-37
2022/08/23 00:35:24;;;;;;;2.15;1.27;;;;;;;28.75;36.28;96216.06;5093735;28;20036;-39
2022/08/23 00:37:50;;;;;;;1.90;1.00;;;;;;;28.79;36.46;96206.06;5093436;28;20024;-38
2022/08/23 00:40:17;;;;;;;1.42;1.33;;;;;;;28.81;36.60;96208.25;5093512;28;20028;-41
2022/08/23 00:49:03;;;;;;;1.88;1.42;;;;;;;28.71;36.54;96216.41;5093756;28;20051;-38
2022/08/23 00:51:43;;;;;;;1.65;1.25;;;;;;;28.72;36.88;96214.34;5093218;28;20027;-38
2022/08/23 00:54:10;;;;;;;1.55;1.23;;;;;;;28.77;36.91;96214.19;5093237;28;20020;-39
2022/08/23 00:56:38;;;;;;;1.95;1.30;;;;;;;28.75;36.73;96216.78;5093841;28;20024;-38
2022/08/23 00:59:05;;;;;;;2.35;1.60;;;;;;;28.72;37.10;96214.34;5093351;28;20077;-38
2022/08/23 01:01:31;;;;;;;1.50;1.20;;;;;;;28.70;36.84;96216.94;5074967;28;20082;-39
2022/08/23 01:03:58;;;;;;;1.92;1.30;;;;;;;28.65;37.29;96223.47;5093212;28;20038;-38
2022/08/23 01:06:45;;;;;;;1.30;1.20;;;;;;;28.76;36.98;96221.09;5093108;28;20028;-37
2022/08/23 01:09:15;;;;;;;3.15;1.52;;;;;;;28.64;37.14;96224.75;5093111;28;20028;-40
2022/08/23 01:11:59;;;;;;;1.80;1.50;;;;;;;28.77;36.96;96225.38;5093258;28;20031;-38
2022/08/23 01:14:42;;;;;;;1.50;1.40;;;;;;;28.67;37.08;96224.41;5093237;28;20382;-38
2022/08/23 01:17:13;;;;;;;2.25;1.30;;;;;;;28.76;37.00;96221.09;5093330;28;20026;-37
2022/08/23 01:19:56;;;;;;;2.17;1.52;;;;;;;28.66;37.23;96220.13;5093328;28;20039;-38
2022/08/23 01:22:48;;;;;;;2.65;1.50;;;;;;;28.66;37.26;96220.13;5093189;28;20031;-41
2022/08/23 01:25:17;;;;;;;2.00;1.40;;;;;;;28.63;37.20;96215.63;5093242;28;20103;-39
2022/08/23 01:27:43;;;;;;;1.52;1.25;;;;;;;28.50;37.59;96224.88;5092953;28;20257;-37
2022/08/23 01:30:12;;;;;;;1.40;1.20;;;;;;;28.67;37.14;96218.81;5093005;28;20035;-37
2022/08/23 01:32:52;;;;;;;1.92;1.60;;;;;;;28.62;37.36;96222.53;5095052;28;20019;-38
2022/08/23 01:35:20;;;;;;;1.50;1.40;;;;;;;28.62;37.12;96216.19;5096836;28;20043;-40
2022/08/23 01:37:45;;;;;;;1.50;1.40;;;;;;;28.54;37.18;96210.59;5096671;28;20027;-38
2022/08/23 01:40:12;;;;;;;1.58;1.20;;;;;;;28.61;36.92;96215.44;5096838;28;20024;-39
2022/08/23 01:42:40;;;;;;;2.33;1.50;;;;;;;28.63;36.91;96214.91;5096360;28;20044;-38
2022/08/23 01:45:10;;;;;;;1.77;1.52;;;;;;;28.65;36.79;96217.88;5096561;28;20039;-37
2022/08/23 01:47:36;;;;;;;1.50;1.30;;;;;;;28.56;37.06;96210.78;5096433;28;20024;-41
2022/08/23 01:50:02;;;;;;;1.98;1.45;;;;;;;28.59;36.75;96218.78;5096467;28;20465;-38
2022/08/23 01:52:28;;;;;;;2.58;1.48;;;;;;;28.59;36.60;96215.25;5096591;28;20028;-40
2022/08/23 01:54:56;;;;;;;2.35;1.48;;;;;;;28.55;36.46;96210.03;5096337;28;20016;-37
2022/08/23 01:57:21;;;;;;;1.98;1.45;;;;;;;28.63;36.37;96215.63;5096429;28;20024;-39
2022/08/23 01:59:47;;;;;;;1.77;1.42;;;;;;;28.60;36.32;96211.91;5096499;28;20046;-38
2022/08/23 02:02:13;;;;;;;1.67;1.30;;;;;;;28.63;36.46;96217.69;5096290;28;20024;-37
2022/08/23 02:04:39;;;;;;;1.83;1.70;;;;;;;28.60;35.99;96216.75;5096463;28;20020;-38
2022/08/23 02:07:04;;;;;;;1.48;1.35;;;;;;;28.55;36.39;96226.78;5096385;28;20031;-38
2022/08/23 02:09:30;;;;;;;1.58;1.27;;;;;;;28.56;36.04;96221.94;5077948;28;20483;-37
2022/08/23 02:11:56;;;;;;;1.50;1.38;;;;;;;28.52;36.19;96224.34;5096319;28;20107;-38
2022/08/23 02:14:22;;;;;;;1.60;1.33;;;;;;;28.57;35.94;96226.94;5095850;28;20133;-41
2022/08/23 02:16:50;;;;;;;1.38;1.27;;;;;;;28.58;35.93;96219.31;5096133;28;20020;-38
2022/08/23 02:19:16;;;;;;;1.50;1.40;;;;;;;28.55;35.83;96214.88;5095986;28;20035;-40
2022/08/23 02:21:42;;;;;;;1.80;1.48;;;;;;;28.52;35.95;96221.56;5077980;28;20024;-39
2022/08/23 02:24:13;;;;;;;1.65;1.50;;;;;;;28.61;35.53;96226.59;5095740;28;20069;-37
2022/08/23 02:26:41;;;;;;;4.07;1.40;;;;;;;28.58;35.65;96220.06;5095961;28;20110;-37
2022/08/23 02:29:07;;;;;;;1.90;1.42;;;;;;;28.54;35.87;96224.53;5095574;28;20582;-38
2022/08/23 02:31:33;;;;;;;1.70;1.38;;;;;;;28.54;35.91;96225.28;5095733;28;20107;-40
2022/08/23 02:34:00;;;;;;;1.45;1.35;;;;;;;28.61;35.44;96226.59;5095656;28;20028;-38
2022/08/23 02:36:26;;;;;;;1.50;1.38;;;;;;;28.52;35.49;96232.72;5095662;28;20422;-37
2022/08/23 02:38:53;;;;;;;1.75;1.65;;;;;;;28.49;35.54;96239.38;5095625;28;20115;-37
2022/08/23 02:41:19;;;;;;;1.50;1.40;;;;;;;28.51;35.47;96236.78;5095496;28;20032;-37
2022/08/23 02:43:44;;;;;;;1.30;1.20;;;;;;;28.48;35.57;96235.09;5094865;28;20104;-36
2022/08/23 02:46:10;;;;;;;1.70;1.60;;;;;;;28.53;35.34;96237.75;5095355;28;20024;-37
2022/08/23 02:48:36;;;;;;;2.13;1.35;;;;;;;28.64;34.92;96233.88;5095711;28;20024;-39
2022/08/23 02:51:05;;;;;;;1.80;1.50;;;;;;;28.54;34.80;96233.66;5095509;28;20374;-38
2022/08/23 02:53:31;;;;;;;1.95;1.20;;;;;;;28.42;35.35;96229.69;5095404;28;20478;-38
2022/08/23 02:55:56;;;;;;;1.50;1.40;;;;;;;28.59;34.50;96231.97;5095391;28;20024;-38
2022/08/23 02:58:23;;;;;;;1.58;1.40;;;;;;;28.60;34.75;96237.00;5095255;28;20028;-37
2022/08/23 03:00:49;;;;;;;1.63;1.30;;;;;;;28.45;35.38;96230.63;5095156;28;20020;-38
2022/08/23 03:03:16;;;;;;;1.98;1.23;;;;;;;28.59;35.02;96234.78;5095165;28;20024;-40
2022/08/23 03:05:42;;;;;;;1.60;1.50;;;;;;;28.56;34.81;96236.63;5095057;28;20115;-39
2022/08/23 03:08:08;;;;;;;1.65;1.55;;;;;;;28.51;34.90;96243.13;5095062;28;20046;-37
2022/08/23 03:10:33;;;;;;;1.90;1.40;;;;;;;28.44;35.01;96237.50;5095050;28;20474;-37
2022/08/23 03:13:00;;;;;;;2.63;1.48;;;;;;;28.62;34.42;96241.31;5094679;28;20477;-37
2022/08/23 03:15:25;;;;;;;2.45;1.60;;;;;;;28.55;35.03;96237.94;5094828;28;20024;-38
2022/08/23 03:17:51;;;;;;;2.13;1.38;;;;;;;28.54;34.76;96241.28;5094731;28;20367;-36
2022/08/23 03:20:17;;;;;;;1.50;1.25;;;;;;;28.46;34.70;96241.22;5076641;28;20031;-37
2022/08/23 03:22:42;;;;;;;1.48;1.35;;;;;;;28.50;34.70;96249.25;5094697;28;20023;-39
2022/08/23 03:25:08;;;;;;;1.90;1.30;;;;;;;28.63;34.70;96248.38;5094505;28;20086;-36
2022/08/23 03:27:34;;;;;;;3.65;1.40;;;;;;;28.51;34.78;96253.53;5094810;28;20388;-37
2022/08/23 03:29:59;;;;;;;2.03;1.55;;;;;;;28.50;34.68;96252.78;5094598;28;20028;-36
2022/08/23 03:32:25;;;;;;;1.45;1.35;;;;;;;28.57;34.56;96251.31;5094459;28;20031;-39
2022/08/23 03:34:51;;;;;;;2.35;1.70;;;;;;;28.47;35.00;96253.13;5094383;28;20382;-38
2022/08/23 03:37:19;;;;;;;2.33;1.20;;;;;;;28.50;34.64;96255.56;5094419;28;20024;-37
2022/08/23 03:39:44;;;;;;;1.52;1.42;;;;;;;28.50;34.65;96254.81;5076306;28;20024;-36
2022/08/23 03:42:10;;;;;;;1.45;1.33;;;;;;;28.57;34.33;96256.91;5094336;28;20059;-37
2022/08/23 03:44:36;;;;;;;2.03;1.40;;;;;;;28.50;34.18;96263.94;5094296;28;20378;-36
2022/08/23 03:47:04;;;;;;;2.00;1.80;;;;;;;28.42;34.88;96254.81;5094281;28;20084;-37
2022/08/23 03:49:30;;;;;;;1.80;1.50;;;;;;;28.66;33.64;96258.44;5094123;28;20521;-38
2022/08/23 03:51:56;;;;;;;1.48;1.27;;;;;;;28.55;34.25;96260.25;5094340;28;20112;-37
2022/08/23 03:54:22;;;;;;;1.60;1.50;;;;;;;28.55;34.52;96265.09;5093163;28;20103;-38
2022/08/23 03:56:59;;;;;;;2.25;1.42;;;;;;;28.63;34.22;96263.06;5094126;28;20020;-37
2022/08/23 03:59:25;;;;;;;2.13;1.40;;;;;;;28.62;34.08;96269.19;5094179;28;20032;-37
2022/08/23 04:01:50;;;;;;;2.22;1.45;;;;;;;28.59;34.53;96276.63;5094009;28;20016;-38
2022/08/23 04:04:16;;;;;;;2.50;1.60;;;;;;;28.50;34.16;96266.75;5093895;28;20365;-37
2022/08/23 04:06:44;;;;;;;1.65;1.50;;;;;;;28.60;34.13;96266.97;5094053;28;20047;-38
2022/08/23 04:09:10;;;;;;;1.42;1.33;;;;;;;28.66;34.05;96275.94;5093684;28;20351;-37
2022/08/23 04:11:36;;;;;;;1.90;1.70;;;;;;;28.48;34.49;96274.16;5093930;28;20093;-37
2022/08/23 04:14:01;;;;;;;1.80;1.60;;;;;;;28.57;34.15;96276.44;5093652;28;20028;-36
2022/08/23 04:16:29;;;;;;;2.25;1.60;;;;;;;28.59;34.08;96285.00;5093577;28;20059;-37
2022/08/23 04:18:54;;;;;;;2.58;1.75;;;;;;;28.58;34.28;96286.28;5094047;28;20024;-37
2022/08/23 04:21:21;;;;;;;1.67;1.55;;;;;;;28.55;34.01;96281.84;5093565;28;20076;-37
2022/08/23 04:23:47;;;;;;;2.30;1.70;;;;;;;28.68;33.88;96284.50;5093795;28;20016;-37
2022/08/23 04:26:13;;;;;;;2.25;1.70;;;;;;;28.64;34.08;96289.69;5093543;28;20489;-36
2022/08/23 04:28:44;;;;;;;2.30;1.67;;;;;;;28.63;33.82;96285.41;5093605;28;20027;-38
2022/08/23 04:31:10;;;;;;;1.50;1.40;;;;;;;28.63;34.06;96282.59;5093469;28;20024;-36
2022/08/23 04:33:35;;;;;;;2.97;1.65;;;;;;;28.65;33.68;96291.19;5093530;28;20035;-37
2022/08/23 04:36:01;;;;;;;1.83;1.50;;;;;;;28.69;34.05;96285.97;5093419;28;20023;-36
2022/08/23 04:38:27;;;;;;;1.90;1.70;;;;;;;28.67;33.98;96291.38;5093562;28;20035;-37
2022/08/23 04:43:38;;;;;;;2.20;2.00;;;;;;;28.63;34.00;96288.19;5093327;28;20541;-38
2022/08/23 04:46:04;;;;;;;2.63;1.70;;;;;;;28.62;33.75;96302.69;5093410;28;20099;-38
2022/08/23 04:48:30;;;;;;;2.67;1.67;;;;;;;28.66;33.83;96298.25;5093209;28;20157;-37
2022/08/23 04:50:55;;;;;;;2.03;1.83;;;;;;;28.59;33.44;96301.75;5093233;28;20024;-36
2022/08/23 04:53:22;;;;;;;2.90;1.88;;;;;;;28.59;33.95;96304.53;5093263;28;20471;-37
2022/08/23 04:55:49;;;;;;;2.60;1.90;;;;;;;28.58;33.87;96303.78;5093220;28;20031;-37
2022/08/23 04:58:15;;;;;;;2.28;1.60;;;;;;;28.58;34.09;96305.81;5093513;28;20093;-37
2022/08/23 05:00:40;;;;;;;1.83;1.63;;;;;;;28.63;34.00;96304.94;5092965;28;20047;-37
2022/08/23 05:03:06;;;;;;;1.65;1.38;;;;;;;28.59;33.71;96299.69;5092955;28;20527;-38
2022/08/23 05:05:32;;;;;;;2.00;1.80;;;;;;;28.66;33.39;96309.41;5093716;28;20031;-38
2022/08/23 05:07:58;;;;;;;1.95;1.40;;;;;;;28.64;33.67;96312.00;5097437;28;20022;-38
2022/08/23 05:10:24;;;;;;;2.15;1.73;;;;;;;28.62;34.12;96314.59;5097231;28;20073;-36
2022/08/23 05:12:49;;;;;;;2.80;1.60;;;;;;;28.64;34.03;96319.63;5095721;28;20023;-36
2022/08/23 05:15:15;;;;;;;1.83;1.48;;;;;;;28.61;33.19;96329.84;5104971;28;20028;-39
2022/08/23 05:17:40;;;;;;;1.58;1.48;;;;;;;28.65;33.58;96323.91;5095242;28;20052;-37
2022/08/23 05:20:07;;;;;;;2.40;1.75;;;;;;;28.61;34.19;96324.25;5112250;28;20020;-38
2022/08/23 05:22:34;;;;;;;1.75;1.65;;;;;;;28.60;33.77;96323.50;5115166;28;20477;-37
2022/08/23 05:25:00;;;;;;;1.50;1.40;;;;;;;28.59;33.71;96324.06;5114700;28;20028;-40
2022/08/23 05:27:25;;;;;;;2.03;1.40;;;;;;;28.57;34.03;96323.84;5114832;28;20028;-37
2022/08/23 05:29:53;;;;;;;2.25;1.70;;;;;;;28.62;34.01;96325.00;5115411;28;20024;-38
2022/08/23 05:32:19;;;;;;;1.58;1.35;;;;;;;28.60;33.91;96329.09;5097995;28;20027;-37
2022/08/23 05:34:45;;;;;;;2.28;1.55;;;;;;;28.57;33.87;96326.66;5094990;28;20764;-36
2022/08/23 05:37:11;;;;;;;2.42;1.70;;;;;;;28.53;33.60;96334.63;5094621;28;20169;-37
2022/08/23 05:39:37;;;;;;;2.10;1.77;;;;;;;28.58;34.04;96328.13;5094751;28;20110;-37
2022/08/23 05:42:05;;;;;;;1.98;1.80;;;;;;;28.50;33.97;96339.28;5094582;28;20111;-37
2022/08/23 05:44:30;;;;;;;3.53;1.50;;;;;;;28.54;33.94;96342.47;5094339;28;20024;-36
2022/08/23 05:46:56;;;;;;;1.70;1.60;;;;;;;28.55;34.01;96346.00;5094660;28;20068;-38
2022/08/23 05:49:21;;;;;;;1.77;1.58;;;;;;;28.58;33.66;96340.06;5092473;28;20024;-39
2022/08/23 05:51:47;;;;;;;2.00;1.80;;;;;;;28.54;34.16;96350.09;5094407;28;20036;-38
2022/08/23 05:54:12;;;;;;;2.70;1.88;;;;;;;28.54;33.84;96347.28;5095961;28;20024;-40
2022/08/23 05:56:41;;;;;;;1.70;1.50;;;;;;;28.53;33.84;96340.22;5096470;28;20162;-39
2022/08/23 05:59:11;;;;;;;2.10;1.80;;;;;;;28.51;33.83;96346.34;5096332;28;20035;-37
2022/08/23 06:01:38;;;;;;;2.00;1.75;;;;;;;28.52;34.32;96342.25;5078141;28;20492;-36
2022/08/23 06:04:07;;;;;;;2.35;1.60;;;;;;;28.53;33.89;96340.22;5096268;28;20020;-37
2022/08/23 06:06:33;;;;;;;3.00;1.70;;;;;;;28.53;33.88;96343.00;5096321;28;20032;-37
2022/08/23 06:08:59;;;;;;;2.80;1.77;;;;;;;28.48;34.49;96344.66;5095868;28;20381;-38
2022/08/23 06:11:28;;;;;;;2.72;1.90;;;;;;;28.52;34.17;96341.50;5096025;28;20038;-40
2022/08/23 06:13:57;;;;;;;3.15;2.00;;;;;;;28.49;34.16;96348.94;5096171;28;20024;-39
2022/08/23 06:16:25;;;;;;;2.00;1.60;;;;;;;28.50;34.35;96346.88;5096060;28;20058;-38
2022/08/23 06:18:53;;;;;;;2.45;1.60;;;;;;;28.54;34.11;96344.50;5095157;28;20020;-36
2022/08/23 06:21:18;;;;;;;2.63;1.70;;;;;;;28.49;33.99;96351.72;5095994;28;20428;-36
2022/08/23 06:23:46;;;;;;;3.38;1.85;;;;;;;28.48;34.42;96352.25;5095860;28;20073;-38
2022/08/23 06:26:18;;;;;;;1.70;1.40;;;;;;;28.53;34.31;96356.97;5095704;28;20031;-37
2022/08/23 06:28:45;;;;;;;2.38;1.70;;;;;;;28.53;34.32;96354.91;5095732;28;20028;-38
2022/08/23 06:31:10;;;;;;;2.05;1.83;;;;;;;28.52;34.16;96366.63;5095768;28;20077;-36
2022/08/23 06:33:39;;;;;;;2.42;1.55;;;;;;;28.46;34.69;96360.44;5095775;28;20481;-36
2022/08/23 06:36:16;;;;;;;1.80;1.70;;;;;;;28.47;34.65;96361.94;5095619;28;20028;-39
2022/08/23 06:38:43;;;;;;;2.15;1.75;;;;;;;28.43;34.38;96358.75;5095639;28;20373;-38
2022/08/23 06:41:11;;;;;;;2.60;2.00;;;;;;;28.44;34.60;96365.81;5095388;28;20091;-37
2022/08/23 06:43:39;;;;;;;2.00;1.80;;;;;;;28.46;34.63;96363.22;5077483;28;20375;-38
2022/08/23 06:46:17;;;;;;;1.80;1.30;;;;;;;28.46;34.58;96366.00;5095461;28;20020;-39
2022/08/23 06:48:44;;;;;;;2.20;1.80;;;;;;;28.46;34.63;96361.19;5095495;28;20107;-38
2022/08/23 06:51:20;;;;;;;3.03;2.60;;;;;;;28.45;34.49;96367.31;5095271;28;20028;-38
2022/08/23 06:53:45;;;;;;;2.53;2.30;;;;;;;27.82;36.05;96377.75;5095172;28;20099;-36
2022/08/23 06:56:11;;;;;;;2.92;2.30;;;;;;;28.01;35.82;96380.34;5094605;28;20099;-36
2022/08/23 06:58:37;;;;;;;2.65;1.90;;;;;;;28.20;35.20;96372.50;5094583;28;20120;-37
2022/08/23 07:01:11;;;;;;;3.22;2.00;;;;;;;28.26;35.17;96377.97;5094990;28;20028;-36
2022/08/23 07:03:36;;;;;;;3.38;2.00;;;;;;;28.34;35.11;96370.38;5094780;28;20568;-37
2022/08/23 07:06:02;;;;;;;4.03;1.83;;;;;;;28.39;35.13;96373.03;5094018;28;20103;-37
2022/08/23 07:08:28;;;;;;;2.88;1.92;;;;;;;28.40;35.15;96371.75;5076718;28;20389;-37
2022/08/23 07:10:56;;;;;;;2.25;1.83;;;;;;;28.43;35.14;96367.13;5094445;28;20020;-36
2022/08/23 07:13:22;;;;;;;3.85;2.30;;;;;;;28.40;35.37;96371.75;5094929;28;20366;-37
2022/08/23 07:15:47;;;;;;;2.17;1.98;;;;;;;28.41;35.26;96378.81;5094923;28;20023;-37
2022/08/23 07:18:13;;;;;;;4.38;2.10;;;;;;;28.42;35.39;96374.75;5094849;28;20094;-37
2022/08/23 07:20:39;;;;;;;2.47;1.77;;;;;;;28.43;35.13;96376.25;5094879;28;20367;-36
2022/08/23 07:23:04;;;;;;;2.92;1.77;;;;;;;28.46;35.43;96380.72;5094669;28;20024;-37
2022/08/23 07:25:31;;;;;;;2.90;2.08;;;;;;;28.46;35.40;96380.72;5094683;28;20160;-38
2022/08/23 07:27:57;;;;;;;2.38;1.90;;;;;;;28.47;35.36;96389.81;5094931;28;20024;-36
2022/08/23 07:30:22;;;;;;;2.97;2.35;;;;;;;28.44;35.53;96383.28;5094329;28;20145;-37
2022/08/23 07:32:48;;;;;;;3.05;2.10;;;;;;;28.45;35.34;96390.38;5094644;28;20024;-36
2022/08/23 07:35:14;;;;;;;4.18;2.00;;;;;;;28.45;35.50;96395.94;5094703;28;20059;-38
2022/08/23 07:37:39;;;;;;;2.50;2.00;;;;;;;27.18;38.74;96394.88;5094620;28;20081;-36
2022/08/23 07:40:06;;;;;;;5.82;2.42;;;;;;;27.42;38.20;96396.63;5076380;28;20055;-34
2022/08/23 07:42:32;;;;;;;4.28;2.28;;;;;;;27.92;37.30;96395.50;5094173;28;20056;-35
2022/08/23 07:44:58;;;;;;;5.97;2.30;;;;;;;28.12;37.07;96403.09;5094333;28;20024;-34
2022/08/23 07:47:24;;;;;;;3.63;2.05;;;;;;;27.90;37.35;96395.28;5093362;28;20024;-34
2022/08/23 07:49:50;;;;;;;3.97;2.30;;;;;;;28.09;36.80;96404.19;5091825;28;20081;-36
2022/08/23 07:52:15;;;;;;;3.75;2.17;;;;;;;28.03;36.99;96398.03;5081953;28;20036;-34
2022/08/23 07:54:41;;;;;;;5.53;2.05;;;;;;;28.21;36.83;96405.44;5053649;28;20077;-34
2022/08/23 07:57:07;;;;;;;2.97;1.83;;;;;;;28.18;36.92;96400.97;5073688;28;20463;-35
2022/08/23 07:59:32;;;;;;;4.32;2.00;;;;;;;28.26;36.87;96406.59;5073753;28;20073;-34
2022/08/23 08:01:58;;;;;;;5.10;2.42;;;;;;;28.12;37.07;96403.09;5073891;28;20458;-34
2022/08/23 08:04:24;;;;;;;6.10;2.20;;;;;;;28.17;37.06;96407.81;5073834;28;20519;-35
2022/08/23 08:06:50;;;;;;;2.72;2.10;;;;;;;28.25;36.73;96410.69;5073217;28;20571;-35
2022/08/23 08:09:18;;;;;;;2.53;2.13;;;;;;;28.17;37.01;96418.97;5073537;28;20039;-35
2022/08/23 08:11:46;;;;;;;3.72;2.10;;;;;;;28.15;36.89;96413.19;5073734;28;20366;-34
2022/08/23 08:14:13;;;;;;;5.60;2.10;;;;;;;28.27;36.89;96415.72;5073448;28;20024;-35
2022/08/23 08:16:42;;;;;;;3.75;2.40;;;;;;;28.21;37.00;96411.00;5073587;28;20103;-34
2022/08/23 08:19:10;;;;;;;7.72;2.58;;;;;;;28.24;36.49;96415.50;5073493;28;20071;-34
2022/08/23 08:21:37;;;;;;;3.25;2.30;;;;;;;28.32;36.66;96423.19;5073054;28;20026;-34
2022/08/23 08:24:03;;;;;;;2.95;2.50;;;;;;;28.33;36.55;96421.88;5073543;28;20020;-34
2022/08/23 08:26:29;;;;;;;3.97;2.53;;;;;;;28.33;36.59;96421.88;5073489;28;20017;-35
2022/08/23 08:28:55;;;;;;;6.03;2.50;;;;;;;28.30;36.81;96417.41;5073563;28;20031;-34
2022/08/23 08:31:23;;;;;;;3.10;2.72;;;;;;;28.32;36.47;96423.19;5073275;28;20020;-35
2022/08/23 08:33:48;;;;;;;2.80;2.50;;;;;;;28.31;36.18;96416.13;5073533;28;20034;-35
2022/08/23 08:36:48;;;;;;;3.70;2.42;;;;;;;28.24;36.52;96415.50;5073542;28;20115;-35
2022/08/23 08:39:17;;;;;;;4.07;2.15;;;;;;;28.31;36.31;96418.91;5029698;28;20036;-35
2022/08/23 08:41:47;;;;;;;2.60;2.40;;;;;;;28.30;36.35;96423.00;5072807;28;20025;-36
2022/08/23 08:44:37;;;;;;;3.42;2.63;;;;;;;28.18;35.26;96414.91;5073460;28;20051;-35
2022/08/23 08:47:12;;;;;;;2.55;2.30;;;;;;;27.95;36.16;96411.13;5073644;28;20025;-35
2022/08/23 08:49:58;;;;;;;2.33;2.00;;;;;;;27.98;35.83;96415.63;5073394;28;20020;-34
2022/08/23 08:52:27;;;;;;;2.97;2.00;;;;;;;27.99;35.36;96419.91;5059187;28;20459;-35
2022/08/23 08:55:29;;;;;;;2.60;1.75;;;;;;;27.93;35.26;96412.97;5073274;28;20028;-34
2022/08/23 08:57:55;;;;;;;1.65;1.40;;;;;;;27.61;35.08;96427.13;5073070;28;20017;-35
2022/08/23 09:00:25;;;;;;;3.45;1.95;;;;;;;28.05;35.06;96426.09;5055137;28;20039;-35
2022/08/23 09:02:51;;;;;;;2.42;1.52;;;;;;;27.68;34.43;96426.47;5073130;28;20459;-34
2022/08/23 09:05:26;;;;;;;3.47;1.70;;;;;;;27.81;34.65;96432.75;5073183;28;20119;-35
2022/08/23 09:08:39;;;;;;;2.38;1.67;;;;;;;27.88;34.05;96420.91;5073338;28;20099;-34
2022/08/23 09:11:38;;;;;;;1.90;1.65;;;;;;;27.90;34.63;96425.97;5073200;28;20029;-34
2022/08/23 09:14:21;;;;;;;1.95;1.77;;;;;;;28.03;34.94;96433.50;5072897;28;20025;-34
2022/08/23 09:17:01;;;;;;;3.10;1.70;;;;;;;27.95;32.50;96427.09;5073137;28;20030;-35
2022/08/23 09:19:27;;;;;;;3.38;1.80;;;;;;;28.11;34.37;96434.31;5073112;28;20378;-34
2022/08/23 09:22:01;;;;;;;2.80;1.75;;;;;;;28.02;34.06;96427.19;5073048;28;20028;-35
2022/08/23 09:24:27;;;;;;;2.33;1.40;;;;;;;27.86;33.43;96431.84;5073019;28;20047;-35
2022/08/23 09:26:53;;;;;;;3.15;1.42;;;;;;;27.88;33.71;96443.22;5073057;28;20035;-35
2022/08/23 09:29:28;;;;;;;1.63;1.30;;;;;;;28.17;33.92;96437.72;5072765;28;20024;-34
2022/08/23 09:32:06;;;;;;;2.10;1.52;;;;;;;28.00;33.35;96435.34;5072850;28;20028;-34
2022/08/23 09:34:33;;;;;;;1.60;1.50;;;;;;;28.17;33.58;96432.16;5072816;28;20024;-34
2022/08/23 09:37:21;;;;;;;2.03;1.38;;;;;;;28.25;34.01;96438.56;5072766;28;20028;-35
2022/08/23 09:40:35;;;;;;;2.90;1.60;;;;;;;28.24;33.78;96443.41;5072682;28;20020;-35
2022/08/23 09:43:04;;;;;;;2.55;1.65;;;;;;;28.36;33.31;96443.88;5064090;28;20466;-34
2022/08/23 09:45:35;;;;;;;1.70;1.58;;;;;;;28.33;33.14;96433.03;5073208;28;20028;-35
2022/08/23 09:48:00;;;;;;;1.92;1.60;;;;;;;28.33;33.74;96439.38;5072685;28;20040;-34
2022/08/23 09:50:35;;;;;;;2.00;1.80;;;;;;;28.35;33.98;96436.78;5072610;28;20535;-34
2022/08/23 09:53:11;;;;;;;2.03;1.80;;;;;;;28.36;34.26;96435.50;5073748;28;20033;-34
2022/08/23 09:55:53;;;;;;;1.58;1.42;;;;;;;28.38;34.16;96429.38;5076199;28;20064;-36
2022/08/23 09:58:43;;;;;;;2.03;1.50;;;;;;;28.40;33.78;96429.59;5058473;28;20024;-34
2022/08/23 10:01:23;;;;;;;1.77;1.58;;;;;;;28.44;33.78;96438.34;5058175;28;20028;-34
2022/08/23 10:04:16;;;;;;;2.40;1.98;;;;;;;28.39;34.13;96439.25;5076050;28;20020;-34
2022/08/23 10:06:45;;;;;;;2.50;1.83;;;;;;;28.43;33.95;96442.44;5076227;28;20082;-36
2022/08/23 10:09:31;;;;;;;2.25;1.60;;;;;;;28.40;34.24;96449.09;5076067;28;20048;-34
2022/08/23 10:12:00;;;;;;;2.22;2.03;;;;;;;28.36;32.27;96446.66;5076015;28;20051;-34
2022/08/23 10:14:28;;;;;;;1.88;1.58;;;;;;;28.40;33.90;96440.75;5058001;28;20033;-34
2022/08/23 10:17:13;;;;;;;2.15;1.70;;;;;;;28.42;33.85;96436.13;5075804;28;20020;-35
2022/08/23 10:20:10;;;;;;;2.25;1.80;;;;;;;28.46;33.67;96441.31;5057690;28;20042;-35
2022/08/23 10:22:44;;;;;;;3.65;1.67;;;;;;;28.40;34.04;96438.69;5075967;28;20017;-35
2022/08/23 10:25:29;;;;;;;2.00;1.55;;;;;;;28.47;33.44;96423.31;5076011;28;20028;-34
2022/08/23 10:31:31;;;;;;;2.58;1.73;;;;;;;28.47;34.09;96431.66;5076129;28;20039;-34
2022/08/23 10:34:12;;;;;;;2.13;1.60;;;;;;;28.42;34.46;96432.56;5075509;28;20409;-35
2022/08/23 10:36:55;;;;;;;1.58;1.48;;;;;;;28.41;34.29;96433.88;5075539;28;20078;-34
2022/08/23 10:39:21;;;;;;;2.05;1.58;;;;;;;28.46;34.41;96430.16;5075399;28;20021;-35
2022/08/23 10:41:59;;;;;;;2.78;1.42;;;;;;;28.42;34.73;96430.53;5075299;28;20020;-34
2022/08/23 10:44:42;;;;;;;1.90;1.40;;;;;;;28.38;34.52;96438.50;5075270;28;20025;-35
2022/08/23 10:47:10;;;;;;;2.05;1.65;;;;;;;28.46;34.70;96432.97;5075389;28;20081;-34
2022/08/23 10:49:39;;;;;;;1.70;1.42;;;;;;;28.47;34.63;96435.22;5075620;28;20099;-35
2022/08/23 10:52:08;;;;;;;1.92;1.63;;;;;;;28.41;34.78;96429.03;5075321;28;20441;-35
2022/08/23 10:54:58;;;;;;;2.22;1.70;;;;;;;28.44;34.57;96432.75;5074905;28;20025;-34
2022/08/23 10:57:32;;;;;;;1.73;1.63;;;;;;;28.46;34.81;96432.97;5075135;28;20035;-34
2022/08/23 10:59:58;;;;;;;2.17;1.70;;;;;;;28.50;34.74;96436.16;5075150;28;20035;-35
2022/08/23 11:03:03;;;;;;;2.33;1.80;;;;;;;28.43;34.50;96434.06;5075020;28;20050;-34
2022/08/23 11:05:34;;;;;;;3.47;2.10;;;;;;;28.44;34.01;96424.38;5070927;28;20047;-34
2022/08/23 11:08:04;;;;;;;2.17;1.80;;;;;;;28.47;34.00;96437.25;5075009;28;20025;-34
2022/08/23 11:10:38;;;;;;;2.35;2.10;;;;;;;28.38;34.20;96435.69;5074866;28;20129;-34
2022/08/23 11:13:17;;;;;;;1.77;1.67;;;;;;;28.48;33.56;96425.53;5056714;28;20465;-34
2022/08/23 11:15:54;;;;;;;1.85;1.75;;;;;;;28.46;33.64;96427.38;5074768;28;20032;-34
2022/08/23 11:18:37;;;;;;;2.63;1.70;;;;;;;28.50;33.39;96425.00;5074632;28;20032;-34
2022/08/23 11:21:18;;;;;;;2.53;1.70;;;;;;;28.48;33.71;96422.00;5074736;28;20040;-34
2022/08/23 11:23:58;;;;;;;2.30;1.73;;;;;;;28.44;34.06;96421.59;5074599;28;20048;-34
2022/08/23 11:26:28;;;;;;;2.42;1.70;;;;;;;28.44;33.80;96416.75;5074613;28;20485;-34
2022/08/23 11:29:07;;;;;;;2.30;1.80;;;;;;;28.50;33.93;96419.41;5074387;28;20071;-34
2022/08/23 11:31:41;;;;;;;2.55;1.55;;;;;;;28.42;34.03;96410.25;5074316;28;20040;-34
2022/08/23 11:34:25;;;;;;;1.70;1.60;;;;;;;28.46;33.61;96414.19;5074224;28;20378;-34
2022/08/23 11:37:18;;;;;;;1.85;1.63;;;;;;;28.49;33.83;96412.34;5074565;28;20028;-34
2022/08/23 11:39:58;;;;;;;2.72;1.52;;;;;;;28.48;33.96;96416.44;5074132;28;20020;-34
2022/08/23 11:42:36;;;;;;;1.85;1.50;;;;;;;28.42;33.54;96422.16;5074130;28;20110;-34
2022/08/23 11:45:03;;;;;;;2.08;1.60;;;;;;;28.54;33.57;96414.25;5074385;28;20016;-34
2022/08/23 11:47:40;;;;;;;1.90;1.70;;;;;;;28.51;33.51;96416.09;5074219;28;20051;-34
2022/08/23 11:50:15;;;;;;;3.05;1.40;;;;;;;28.53;33.75;96419.09;5074103;28;20067;-35
2022/08/23 11:53:13;;;;;;;1.92;1.40;;;;;;;28.50;33.42;96411.81;5073965;28;20021;-35
2022/08/23 11:55:56;;;;;;;2.35;1.50;;;;;;;28.54;33.31;96419.84;4992649;28;20042;-35
2022/08/23 11:58:33;;;;;;;1.88;1.40;;;;;;;28.52;33.45;96412.00;4993000;28;20038;-34
2022/08/23 12:01:07;;;;;;;1.45;1.30;;;;;;;28.51;33.46;96404.19;4992519;28;20130;-36